Terminal Aerodrome Forecast
Issued by NWS

Home | Current Version | Previous Version | Graphics & Text | Print | Product List | Glossary On
Versions: 1 2 3 4 5 6 7 8 9 10 11 12 13 14 15 16 17 18 19 20 21 22 23 24 25 26 27 28 29
000
FTUS45 KGGW 020000 AAA
TAFGDV
TAF AMD
KGDV 020055Z 0201/0224 VRB06KT P6SM SCT090 BKN250
     FM020600 02010KT P6SM VCTS BKN090CB
     FM020900 VRB06KT 6SM -SHRA BKN080
     FM022100 34013KT 6SM -SHRA BKN024
      AMD LTD TO CLD VIS AND WIND=

USA.gov is the U.S. government's official web portal to all federal, state and local government web resources and services.